sensor_id;sensor_type;location;lat;lon;timestamp;temperature;humidity
40960;DHT22;27842;52.272;8.052;2022-08-03T00:01:53;23.70;75.60
40960;DHT22;27842;52.272;8.052;2022-08-03T00:04:19;23.60;75.70
40960;DHT22;27842;52.272;8.052;2022-08-03T00:06:44;23.60;75.70
40960;DHT22;27842;52.272;8.052;2022-08-03T00:09:10;23.60;75.70
40960;DHT22;27842;52.272;8.052;2022-08-03T00:11:36;23.60;76.00
40960;DHT22;27842;52.272;8.052;2022-08-03T00:14:04;23.50;76.00
40960;DHT22;27842;52.272;8.052;2022-08-03T00:16:30;23.50;76.20
40960;DHT22;27842;52.272;8.052;2022-08-03T00:18:55;23.50;76.20
40960;DHT22;27842;52.272;8.052;2022-08-03T00:21:21;23.50;76.30
40960;DHT22;27842;52.272;8.052;2022-08-03T00:23:47;23.50;77.00
40960;DHT22;27842;52.272;8.052;2022-08-03T00:26:12;23.50;76.40
40960;DHT22;27842;52.272;8.052;2022-08-03T00:28:38;23.50;76.50
40960;DHT22;27842;52.272;8.052;2022-08-03T00:31:04;23.40;76.50
40960;DHT22;27842;52.272;8.052;2022-08-03T00:33:29;23.40;76.60
40960;DHT22;27842;52.272;8.052;2022-08-03T00:35:55;23.40;76.70
40960;DHT22;27842;52.272;8.052;2022-08-03T00:38:21;23.30;76.70
40960;DHT22;27842;52.272;8.052;2022-08-03T00:40:46;23.30;76.90
40960;DHT22;27842;52.272;8.052;2022-08-03T00:43:12;23.30;76.90
40960;DHT22;27842;52.272;8.052;2022-08-03T00:45:40;23.30;77.00
40960;DHT22;27842;52.272;8.052;2022-08-03T00:48:08;23.20;77.10
40960;DHT22;27842;52.272;8.052;2022-08-03T00:50:36;23.20;77.10
40960;DHT22;27842;52.272;8.052;2022-08-03T00:53:13;23.20;77.20
40960;DHT22;27842;52.272;8.052;2022-08-03T00:55:43;23.20;77.30
40960;DHT22;27842;52.272;8.052;2022-08-03T00:58:09;23.10;77.30
40960;DHT22;27842;52.272;8.052;2022-08-03T01:00:37;23.20;77.50
40960;DHT22;27842;52.272;8.052;2022-08-03T01:03:04;23.10;77.50
40960;DHT22;27842;52.272;8.052;2022-08-03T01:08:26;23.10;77.70
40960;DHT22;27842;52.272;8.052;2022-08-03T01:10:56;23.10;77.80
40960;DHT22;27842;52.272;8.052;2022-08-03T01:13:30;23.00;77.80
40960;DHT22;27842;52.272;8.052;2022-08-03T01:16:22;23.00;77.90
40960;DHT22;27842;52.272;8.052;2022-08-03T01:21:37;22.90;78.00
40960;DHT22;27842;52.272;8.052;2022-08-03T01:26:52;23.00;78.10
40960;DHT22;27842;52.272;8.052;2022-08-03T01:30:00;22.90;78.10
40960;DHT22;27842;52.272;8.052;2022-08-03T01:32:45;22.90;78.20
40960;DHT22;27842;52.272;8.052;2022-08-03T01:35:17;22.90;78.30
40960;DHT22;27842;52.272;8.052;2022-08-03T01:37:55;22.90;78.50
40960;DHT22;27842;52.272;8.052;2022-08-03T01:40:24;22.80;78.40
40960;DHT22;27842;52.272;8.052;2022-08-03T01:42:51;22.80;78.50
40960;DHT22;27842;52.272;8.052;2022-08-03T01:45:20;22.80;78.50
40960;DHT22;27842;52.272;8.052;2022-08-03T01:47:48;22.80;78.50
40960;DHT22;27842;52.272;8.052;2022-08-03T01:50:15;22.80;78.60
40960;DHT22;27842;52.272;8.052;2022-08-03T01:52:44;22.80;78.70
40960;DHT22;27842;52.272;8.052;2022-08-03T01:55:11;22.70;78.70
40960;DHT22;27842;52.272;8.052;2022-08-03T01:57:39;22.70;78.90
40960;DHT22;27842;52.272;8.052;2022-08-03T02:00:07;22.70;78.90
40960;DHT22;27842;52.272;8.052;2022-08-03T02:02:36;22.70;79.00
40960;DHT22;27842;52.272;8.052;2022-08-03T02:05:06;22.60;79.00
40960;DHT22;27842;52.272;8.052;2022-08-03T02:07:33;22.70;79.00
40960;DHT22;27842;52.272;8.052;2022-08-03T02:10:00;22.60;78.90
40960;DHT22;27842;52.272;8.052;2022-08-03T02:12:29;22.70;79.00
40960;DHT22;27842;52.272;8.052;2022-08-03T02:14:56;22.60;79.00
40960;DHT22;27842;52.272;8.052;2022-08-03T02:17:24;22.50;79.00
40960;DHT22;27842;52.272;8.052;2022-08-03T02:19:51;22.50;79.10
40960;DHT22;27842;52.272;8.052;2022-08-03T02:22:18;22.50;79.10
40960;DHT22;27842;52.272;8.052;2022-08-03T02:24:44;22.50;79.10
40960;DHT22;27842;52.272;8.052;2022-08-03T02:27:21;22.50;79.20
40960;DHT22;27842;52.272;8.052;2022-08-03T02:29:52;22.50;79.30
40960;DHT22;27842;52.272;8.052;2022-08-03T02:32:23;22.50;79.40
40960;DHT22;27842;52.272;8.052;2022-08-03T02:34:50;22.40;79.40
40960;DHT22;27842;52.272;8.052;2022-08-03T02:37:18;22.40;79.50
40960;DHT22;27842;52.272;8.052;2022-08-03T02:39:44;22.40;79.50
40960;DHT22;27842;52.272;8.052;2022-08-03T02:42:13;22.40;79.60
40960;DHT22;27842;52.272;8.052;2022-08-03T02:44:41;22.40;79.70
40960;DHT22;27842;52.272;8.052;2022-08-03T02:47:12;22.40;79.70
40960;DHT22;27842;52.272;8.052;2022-08-03T02:49:40;22.40;79.70
40960;DHT22;27842;52.272;8.052;2022-08-03T02:52:10;22.30;79.70
40960;DHT22;27842;52.272;8.052;2022-08-03T02:54:37;22.30;79.90
40960;DHT22;27842;52.272;8.052;2022-08-03T02:57:06;22.30;79.90
40960;DHT22;27842;52.272;8.052;2022-08-03T02:59:33;22.20;80.00
40960;DHT22;27842;52.272;8.052;2022-08-03T03:02:02;22.20;80.00
40960;DHT22;27842;52.272;8.052;2022-08-03T03:04:29;22.20;80.10
40960;DHT22;27842;52.272;8.052;2022-08-03T03:06:56;22.20;80.20
40960;DHT22;27842;52.272;8.052;2022-08-03T03:09:22;22.20;80.10
40960;DHT22;27842;52.272;8.052;2022-08-03T03:11:49;22.20;80.10
40960;DHT22;27842;52.272;8.052;2022-08-03T03:14:16;22.20;80.20
40960;DHT22;27842;52.272;8.052;2022-08-03T03:16:44;22.20;80.30
40960;DHT22;27842;52.272;8.052;2022-08-03T03:19:12;22.10;80.30
40960;DHT22;27842;52.272;8.052;2022-08-03T03:21:39;22.10;80.40
40960;DHT22;27842;52.272;8.052;2022-08-03T03:24:20;22.10;80.50
40960;DHT22;27842;52.272;8.052;2022-08-03T03:26:47;22.10;80.60
40960;DHT22;27842;52.272;8.052;2022-08-03T03:29:14;22.10;81.40
40960;DHT22;27842;52.272;8.052;2022-08-03T03:31:40;22.00;80.70
40960;DHT22;27842;52.272;8.052;2022-08-03T03:34:06;22.00;80.70
40960;DHT22;27842;52.272;8.052;2022-08-03T03:36:31;21.90;80.70
40960;DHT22;27842;52.272;8.052;2022-08-03T03:38:57;22.00;80.80
40960;DHT22;27842;52.272;8.052;2022-08-03T03:41:23;22.00;80.90
40960;DHT22;27842;52.272;8.052;2022-08-03T03:43:49;21.90;80.90
40960;DHT22;27842;52.272;8.052;2022-08-03T03:46:15;21.90;81.00
40960;DHT22;27842;52.272;8.052;2022-08-03T03:48:41;21.90;81.00
40960;DHT22;27842;52.272;8.052;2022-08-03T03:51:07;21.90;81.00
40960;DHT22;27842;52.272;8.052;2022-08-03T03:54:08;21.90;81.10
40960;DHT22;27842;52.272;8.052;2022-08-03T03:56:34;21.90;81.00
40960;DHT22;27842;52.272;8.052;2022-08-03T03:59:00;21.90;81.20
40960;DHT22;27842;52.272;8.052;2022-08-03T04:01:26;21.80;81.20
40960;DHT22;27842;52.272;8.052;2022-08-03T04:03:51;21.80;81.40
40960;DHT22;27842;52.272;8.052;2022-08-03T04:06:17;21.80;81.40
40960;DHT22;27842;52.272;8.052;2022-08-03T04:09:02;21.80;81.50
40960;DHT22;27842;52.272;8.052;2022-08-03T04:11:50;21.80;81.50
40960;DHT22;27842;52.272;8.052;2022-08-03T04:14:32;21.80;81.60
40960;DHT22;27842;52.272;8.052;2022-08-03T04:17:04;21.70;81.60
40960;DHT22;27842;52.272;8.052;2022-08-03T04:19:36;21.70;81.60
40960;DHT22;27842;52.272;8.052;2022-08-03T04:22:08;21.80;81.70
40960;DHT22;27842;52.272;8.052;2022-08-03T04:24:48;21.70;81.60
40960;DHT22;27842;52.272;8.052;2022-08-03T04:27:27;21.70;81.60
40960;DHT22;27842;52.272;8.052;2022-08-03T04:29:54;21.70;81.70
40960;DHT22;27842;52.272;8.052;2022-08-03T04:32:22;21.70;81.70
40960;DHT22;27842;52.272;8.052;2022-08-03T04:34:51;21.60;81.70
40960;DHT22;27842;52.272;8.052;2022-08-03T04:37:37;21.70;81.80
40960;DHT22;27842;52.272;8.052;2022-08-03T04:40:07;21.70;81.90
40960;DHT22;27842;52.272;8.052;2022-08-03T04:42:34;21.70;81.80
40960;DHT22;27842;52.272;8.052;2022-08-03T04:45:02;21.70;81.70
40960;DHT22;27842;52.272;8.052;2022-08-03T04:47:32;21.70;81.70
40960;DHT22;27842;52.272;8.052;2022-08-03T04:50:00;21.70;81.80
40960;DHT22;27842;52.272;8.052;2022-08-03T04:52:26;21.70;81.80
40960;DHT22;27842;52.272;8.052;2022-08-03T04:54:52;21.70;81.80
40960;DHT22;27842;52.272;8.052;2022-08-03T04:57:18;21.70;81.90
40960;DHT22;27842;52.272;8.052;2022-08-03T04:59:44;21.70;82.00
40960;DHT22;27842;52.272;8.052;2022-08-03T05:02:09;21.70;82.00
40960;DHT22;27842;52.272;8.052;2022-08-03T05:04:35;21.70;82.10
40960;DHT22;27842;52.272;8.052;2022-08-03T05:07:02;21.70;82.80
40960;DHT22;27842;52.272;8.052;2022-08-03T05:09:28;21.70;82.20
40960;DHT22;27842;52.272;8.052;2022-08-03T05:11:54;21.70;82.20
40960;DHT22;27842;52.272;8.052;2022-08-03T05:14:20;21.70;82.30
40960;DHT22;27842;52.272;8.052;2022-08-03T05:16:45;21.70;82.30
40960;DHT22;27842;52.272;8.052;2022-08-03T05:19:11;21.70;82.40
40960;DHT22;27842;52.272;8.052;2022-08-03T05:21:37;21.80;82.50
40960;DHT22;27842;52.272;8.052;2022-08-03T05:24:03;21.80;82.50
40960;DHT22;27842;52.272;8.052;2022-08-03T05:26:29;21.80;82.50
40960;DHT22;27842;52.272;8.052;2022-08-03T05:28:54;21.80;82.50
40960;DHT22;27842;52.272;8.052;2022-08-03T05:31:20;21.80;82.40
40960;DHT22;27842;52.272;8.052;2022-08-03T05:33:46;21.90;82.40
40960;DHT22;27842;52.272;8.052;2022-08-03T05:36:13;21.90;82.80
40960;DHT22;27842;52.272;8.052;2022-08-03T05:38:39;21.90;82.40
40960;DHT22;27842;52.272;8.052;2022-08-03T05:41:04;21.90;82.40
40960;DHT22;27842;52.272;8.052;2022-08-03T05:43:30;22.00;82.40
40960;DHT22;27842;52.272;8.052;2022-08-03T05:45:56;22.00;82.40
40960;DHT22;27842;52.272;8.052;2022-08-03T05:48:23;22.10;82.40
40960;DHT22;27842;52.272;8.052;2022-08-03T05:50:48;22.10;82.40
40960;DHT22;27842;52.272;8.052;2022-08-03T05:53:17;22.10;82.30
40960;DHT22;27842;52.272;8.052;2022-08-03T05:55:43;22.10;82.30
40960;DHT22;27842;52.272;8.052;2022-08-03T05:58:09;22.20;82.40
40960;DHT22;27842;52.272;8.052;2022-08-03T06:00:34;22.20;82.30
40960;DHT22;27842;52.272;8.052;2022-08-03T06:03:00;22.30;82.30
40960;DHT22;27842;52.272;8.052;2022-08-03T06:05:27;22.30;82.20
40960;DHT22;27842;52.272;8.052;2022-08-03T06:07:53;22.30;82.10
40960;DHT22;27842;52.272;8.052;2022-08-03T06:10:19;22.40;82.10
40960;DHT22;27842;52.272;8.052;2022-08-03T06:12:45;22.40;81.90
40960;DHT22;27842;52.272;8.052;2022-08-03T06:15:14;22.50;81.90
40960;DHT22;27842;52.272;8.052;2022-08-03T06:17:47;22.60;81.80
40960;DHT22;27842;52.272;8.052;2022-08-03T06:20:18;22.60;81.70
40960;DHT22;27842;52.272;8.052;2022-08-03T06:22:45;22.70;81.60
40960;DHT22;27842;52.272;8.052;2022-08-03T06:25:11;22.70;81.30
40960;DHT22;27842;52.272;8.052;2022-08-03T06:27:36;22.80;81.20
40960;DHT22;27842;52.272;8.052;2022-08-03T06:30:05;22.80;81.10
40960;DHT22;27842;52.272;8.052;2022-08-03T06:32:32;22.90;81.00
40960;DHT22;27842;52.272;8.052;2022-08-03T06:34:59;23.00;81.00
40960;DHT22;27842;52.272;8.052;2022-08-03T06:37:25;23.10;81.40
40960;DHT22;27842;52.272;8.052;2022-08-03T06:39:52;23.20;80.60
40960;DHT22;27842;52.272;8.052;2022-08-03T06:42:17;23.30;80.40
40960;DHT22;27842;52.272;8.052;2022-08-03T06:44:43;23.40;80.20
40960;DHT22;27842;52.272;8.052;2022-08-03T06:47:09;23.50;80.10
40960;DHT22;27842;52.272;8.052;2022-08-03T06:49:34;23.50;79.80
40960;DHT22;27842;52.272;8.052;2022-08-03T06:52:00;23.60;79.70
40960;DHT22;27842;52.272;8.052;2022-08-03T06:54:26;23.70;79.70
40960;DHT22;27842;52.272;8.052;2022-08-03T06:56:52;23.70;79.50
40960;DHT22;27842;52.272;8.052;2022-08-03T06:59:18;23.80;79.70
40960;DHT22;27842;52.272;8.052;2022-08-03T07:01:44;23.80;79.30
40960;DHT22;27842;52.272;8.052;2022-08-03T07:04:09;24.00;79.10
40960;DHT22;27842;52.272;8.052;2022-08-03T07:06:37;24.00;78.80
40960;DHT22;27842;52.272;8.052;2022-08-03T07:09:03;24.20;78.80
40960;DHT22;27842;52.272;8.052;2022-08-03T07:11:29;24.30;78.70
40960;DHT22;27842;52.272;8.052;2022-08-03T07:13:55;24.30;78.40
40960;DHT22;27842;52.272;8.052;2022-08-03T07:16:21;24.50;78.20
40960;DHT22;27842;52.272;8.052;2022-08-03T07:18:46;24.60;77.80
40960;DHT22;27842;52.272;8.052;2022-08-03T07:21:12;24.70;77.50
40960;DHT22;27842;52.272;8.052;2022-08-03T07:23:50;24.90;77.50
40960;DHT22;27842;52.272;8.052;2022-08-03T07:26:16;24.90;77.30
40960;DHT22;27842;52.272;8.052;2022-08-03T07:28:42;25.00;77.00
40960;DHT22;27842;52.272;8.052;2022-08-03T07:31:07;25.10;76.80
40960;DHT22;27842;52.272;8.052;2022-08-03T07:33:33;25.20;76.50
40960;DHT22;27842;52.272;8.052;2022-08-03T07:35:59;25.30;76.40
40960;DHT22;27842;52.272;8.052;2022-08-03T07:38:25;25.40;76.20
40960;DHT22;27842;52.272;8.052;2022-08-03T07:40:50;25.40;76.00
40960;DHT22;27842;52.272;8.052;2022-08-03T07:43:17;25.50;75.90
40960;DHT22;27842;52.272;8.052;2022-08-03T07:45:43;25.60;75.70
40960;DHT22;27842;52.272;8.052;2022-08-03T07:48:09;25.70;75.60
40960;DHT22;27842;52.272;8.052;2022-08-03T07:50:34;25.80;75.50
40960;DHT22;27842;52.272;8.052;2022-08-03T07:53:03;25.80;75.30
40960;DHT22;27842;52.272;8.052;2022-08-03T07:55:29;25.90;75.00
40960;DHT22;27842;52.272;8.052;2022-08-03T07:58:09;26.00;75.00
40960;DHT22;27842;52.272;8.052;2022-08-03T08:00:37;26.10;74.60
40960;DHT22;27842;52.272;8.052;2022-08-03T08:03:03;26.20;74.60
40960;DHT22;27842;52.272;8.052;2022-08-03T08:05:29;26.30;74.50
40960;DHT22;27842;52.272;8.052;2022-08-03T08:07:55;26.30;74.20
40960;DHT22;27842;52.272;8.052;2022-08-03T08:10:21;26.50;73.80
40960;DHT22;27842;52.272;8.052;2022-08-03T08:12:47;26.50;73.70
40960;DHT22;27842;52.272;8.052;2022-08-03T08:15:12;26.60;73.50
40960;DHT22;27842;52.272;8.052;2022-08-03T08:17:52;26.70;73.30
40960;DHT22;27842;52.272;8.052;2022-08-03T08:20:21;26.80;72.80
40960;DHT22;27842;52.272;8.052;2022-08-03T08:22:54;26.80;72.80
40960;DHT22;27842;52.272;8.052;2022-08-03T08:25:19;26.90;73.00
40960;DHT22;27842;52.272;8.052;2022-08-03T08:27:48;26.90;72.60
40960;DHT22;27842;52.272;8.052;2022-08-03T08:30:16;27.00;72.30
40960;DHT22;27842;52.272;8.052;2022-08-03T08:32:43;27.10;72.10
40960;DHT22;27842;52.272;8.052;2022-08-03T08:35:10;27.10;72.10
40960;DHT22;27842;52.272;8.052;2022-08-03T08:37:36;27.20;71.90
40960;DHT22;27842;52.272;8.052;2022-08-03T08:40:04;27.20;71.70
40960;DHT22;27842;52.272;8.052;2022-08-03T08:42:31;27.30;71.70
40960;DHT22;27842;52.272;8.052;2022-08-03T08:44:56;27.30;71.60
40960;DHT22;27842;52.272;8.052;2022-08-03T08:47:24;27.40;71.40
40960;DHT22;27842;52.272;8.052;2022-08-03T08:49:54;27.40;71.10
40960;DHT22;27842;52.272;8.052;2022-08-03T08:52:24;27.50;70.20
40960;DHT22;27842;52.272;8.052;2022-08-03T08:55:01;27.60;71.00
40960;DHT22;27842;52.272;8.052;2022-08-03T08:57:35;27.60;71.00
40960;DHT22;27842;52.272;8.052;2022-08-03T09:00:07;27.70;70.60
40960;DHT22;27842;52.272;8.052;2022-08-03T09:02:35;27.70;70.70
40960;DHT22;27842;52.272;8.052;2022-08-03T09:05:02;27.70;70.30
40960;DHT22;27842;52.272;8.052;2022-08-03T09:07:28;27.80;70.40
40960;DHT22;27842;52.272;8.052;2022-08-03T09:09:54;27.80;70.30
40960;DHT22;27842;52.272;8.052;2022-08-03T09:12:19;27.80;70.10
40960;DHT22;27842;52.272;8.052;2022-08-03T09:14:45;27.80;70.10
40960;DHT22;27842;52.272;8.052;2022-08-03T09:17:11;27.80;69.90
40960;DHT22;27842;52.272;8.052;2022-08-03T09:19:37;27.90;69.80
40960;DHT22;27842;52.272;8.052;2022-08-03T09:24:32;28.00;69.60
40960;DHT22;27842;52.272;8.052;2022-08-03T09:26:58;28.10;70.40
40960;DHT22;27842;52.272;8.052;2022-08-03T09:29:24;28.20;69.50
40960;DHT22;27842;52.272;8.052;2022-08-03T09:32:00;28.30;69.40
40960;DHT22;27842;52.272;8.052;2022-08-03T09:34:26;28.40;68.60
40960;DHT22;27842;52.272;8.052;2022-08-03T09:36:53;28.50;69.10
40960;DHT22;27842;52.272;8.052;2022-08-03T09:39:24;28.60;69.00
40960;DHT22;27842;52.272;8.052;2022-08-03T09:42:11;28.70;68.70
40960;DHT22;27842;52.272;8.052;2022-08-03T09:44:40;28.80;68.20
40960;DHT22;27842;52.272;8.052;2022-08-03T09:47:10;28.90;68.30
40960;DHT22;27842;52.272;8.052;2022-08-03T09:49:37;28.90;68.10
40960;DHT22;27842;52.272;8.052;2022-08-03T09:52:18;28.90;68.10
40960;DHT22;27842;52.272;8.052;2022-08-03T09:54:50;29.00;67.30
40960;DHT22;27842;52.272;8.052;2022-08-03T09:57:24;29.00;67.80
40960;DHT22;27842;52.272;8.052;2022-08-03T09:59:51;29.00;67.70
40960;DHT22;27842;52.272;8.052;2022-08-03T10:02:21;29.00;67.80
40960;DHT22;27842;52.272;8.052;2022-08-03T10:04:48;29.10;66.70
40960;DHT22;27842;52.272;8.052;2022-08-03T10:07:18;29.20;67.70
40960;DHT22;27842;52.272;8.052;2022-08-03T10:09:58;29.30;67.30
40960;DHT22;27842;52.272;8.052;2022-08-03T10:12:24;29.40;67.30
40960;DHT22;27842;52.272;8.052;2022-08-03T10:14:51;29.50;67.00
40960;DHT22;27842;52.272;8.052;2022-08-03T10:17:17;29.50;66.90
40960;DHT22;27842;52.272;8.052;2022-08-03T10:19:43;29.50;66.50
40960;DHT22;27842;52.272;8.052;2022-08-03T10:22:13;29.60;66.60
40960;DHT22;27842;52.272;8.052;2022-08-03T10:24:48;29.60;66.50
40960;DHT22;27842;52.272;8.052;2022-08-03T10:27:14;29.60;66.60
40960;DHT22;27842;52.272;8.052;2022-08-03T10:29:44;29.60;66.60
40960;DHT22;27842;52.272;8.052;2022-08-03T10:33:07;29.60;66.20
40960;DHT22;27842;52.272;8.052;2022-08-03T10:35:14;29.60;65.30
40960;DHT22;27842;52.272;8.052;2022-08-03T10:37:43;29.60;66.30
40960;DHT22;27842;52.272;8.052;2022-08-03T10:40:13;29.70;66.10
40960;DHT22;27842;52.272;8.052;2022-08-03T10:42:43;29.60;65.90
40960;DHT22;27842;52.272;8.052;2022-08-03T10:45:20;29.60;66.10
40960;DHT22;27842;52.272;8.052;2022-08-03T10:47:48;29.50;65.80
40960;DHT22;27842;52.272;8.052;2022-08-03T10:50:14;29.40;66.10
40960;DHT22;27842;52.272;8.052;2022-08-03T10:53:00;29.30;65.20
40960;DHT22;27842;52.272;8.052;2022-08-03T10:55:37;29.30;66.30
40960;DHT22;27842;52.272;8.052;2022-08-03T11:01:08;29.30;66.40
40960;DHT22;27842;52.272;8.052;2022-08-03T11:06:24;29.30;66.40
40960;DHT22;27842;52.272;8.052;2022-08-03T11:11:35;29.40;66.30
40960;DHT22;27842;52.272;8.052;2022-08-03T11:16:32;29.50;66.30
40960;DHT22;27842;52.272;8.052;2022-08-03T11:19:02;29.60;66.40
40960;DHT22;27842;52.272;8.052;2022-08-03T11:46:10;30.50;63.50
40960;DHT22;27842;52.272;8.052;2022-08-03T11:48:44;30.60;63.70
40960;DHT22;27842;52.272;8.052;2022-08-03T11:51:27;30.70;62.20
40960;DHT22;27842;52.272;8.052;2022-08-03T11:54:02;30.80;63.00
40960;DHT22;27842;52.272;8.052;2022-08-03T11:56:43;31.00;62.70
40960;DHT22;27842;52.272;8.052;2022-08-03T11:59:09;31.10;62.70
40960;DHT22;27842;52.272;8.052;2022-08-03T12:01:35;31.20;62.30
40960;DHT22;27842;52.272;8.052;2022-08-03T12:04:03;31.30;62.20
40960;DHT22;27842;52.272;8.052;2022-08-03T12:06:32;31.50;62.20
40960;DHT22;27842;52.272;8.052;2022-08-03T12:09:17;31.50;62.00
40960;DHT22;27842;52.272;8.052;2022-08-03T12:11:47;31.60;61.90
40960;DHT22;27842;52.272;8.052;2022-08-03T12:14:16;31.80;59.60
40960;DHT22;27842;52.272;8.052;2022-08-03T12:16:46;31.90;59.40
40960;DHT22;27842;52.272;8.052;2022-08-03T12:19:13;32.00;59.40
40960;DHT22;27842;52.272;8.052;2022-08-03T12:21:48;32.10;60.60
40960;DHT22;27842;52.272;8.052;2022-08-03T12:24:14;32.20;57.80
40960;DHT22;27842;52.272;8.052;2022-08-03T12:26:46;32.30;60.70
40960;DHT22;27842;52.272;8.052;2022-08-03T12:29:19;32.40;59.00
40960;DHT22;27842;52.272;8.052;2022-08-03T12:31:44;32.50;59.80
40960;DHT22;27842;52.272;8.052;2022-08-03T12:34:10;32.60;59.60
40960;DHT22;27842;52.272;8.052;2022-08-03T12:36:36;32.70;59.20
40960;DHT22;27842;52.272;8.052;2022-08-03T12:39:06;32.80;59.20
40960;DHT22;27842;52.272;8.052;2022-08-03T12:41:37;32.80;58.70
40960;DHT22;27842;52.272;8.052;2022-08-03T12:44:07;32.90;57.60
40960;DHT22;27842;52.272;8.052;2022-08-03T12:46:36;33.00;58.80
40960;DHT22;27842;52.272;8.052;2022-08-03T12:49:10;33.10;57.60
40960;DHT22;27842;52.272;8.052;2022-08-03T12:51:57;33.20;58.80
40960;DHT22;27842;52.272;8.052;2022-08-03T12:54:26;33.20;58.40
40960;DHT22;27842;52.272;8.052;2022-08-03T12:57:06;33.40;58.00
40960;DHT22;27842;52.272;8.052;2022-08-03T12:59:40;33.50;57.70
40960;DHT22;27842;52.272;8.052;2022-08-03T13:04:40;33.60;57.30
40960;DHT22;27842;52.272;8.052;2022-08-03T13:07:08;33.60;56.90
40960;DHT22;27842;52.272;8.052;2022-08-03T13:09:41;33.70;57.10
40960;DHT22;27842;52.272;8.052;2022-08-03T13:12:18;33.80;54.00
40960;DHT22;27842;52.272;8.052;2022-08-03T13:14:46;33.80;57.00
40960;DHT22;27842;52.272;8.052;2022-08-03T13:17:12;33.80;56.90
40960;DHT22;27842;52.272;8.052;2022-08-03T13:19:38;33.90;56.40
40960;DHT22;27842;52.272;8.052;2022-08-03T13:22:17;34.00;55.80
40960;DHT22;27842;52.272;8.052;2022-08-03T13:24:45;34.10;54.50
40960;DHT22;27842;52.272;8.052;2022-08-03T13:27:12;34.00;54.80
40960;DHT22;27842;52.272;8.052;2022-08-03T13:29:38;34.00;55.30
40960;DHT22;27842;52.272;8.052;2022-08-03T13:32:05;34.00;55.60
40960;DHT22;27842;52.272;8.052;2022-08-03T13:34:31;34.10;55.80
40960;DHT22;27842;52.272;8.052;2022-08-03T13:36:56;34.10;55.40
40960;DHT22;27842;52.272;8.052;2022-08-03T13:39:22;34.30;54.30
40960;DHT22;27842;52.272;8.052;2022-08-03T13:41:48;34.30;54.60
40960;DHT22;27842;52.272;8.052;2022-08-03T13:44:14;34.30;54.30
40960;DHT22;27842;52.272;8.052;2022-08-03T13:46:40;34.40;54.30
40960;DHT22;27842;52.272;8.052;2022-08-03T13:49:06;34.50;54.30
40960;DHT22;27842;52.272;8.052;2022-08-03T13:51:32;34.60;53.80
40960;DHT22;27842;52.272;8.052;2022-08-03T13:53:57;34.60;53.70
40960;DHT22;27842;52.272;8.052;2022-08-03T13:56:25;34.50;53.70
40960;DHT22;27842;52.272;8.052;2022-08-03T13:58:50;34.60;53.50
40960;DHT22;27842;52.272;8.052;2022-08-03T14:01:16;34.50;53.70
40960;DHT22;27842;52.272;8.052;2022-08-03T14:03:42;34.50;53.80
40960;DHT22;27842;52.272;8.052;2022-08-03T14:06:07;34.50;53.70
40960;DHT22;27842;52.272;8.052;2022-08-03T14:08:33;34.50;53.70
40960;DHT22;27842;52.272;8.052;2022-08-03T14:10:59;34.50;53.20
40960;DHT22;27842;52.272;8.052;2022-08-03T14:13:24;34.60;52.70
40960;DHT22;27842;52.272;8.052;2022-08-03T14:15:50;34.60;52.30
40960;DHT22;27842;52.272;8.052;2022-08-03T14:18:19;34.50;52.40
40960;DHT22;27842;52.272;8.052;2022-08-03T14:20:45;34.40;52.60
40960;DHT22;27842;52.272;8.052;2022-08-03T14:23:11;34.40;53.00
40960;DHT22;27842;52.272;8.052;2022-08-03T14:25:37;34.40;52.80
40960;DHT22;27842;52.272;8.052;2022-08-03T14:28:06;34.40;52.60
40960;DHT22;27842;52.272;8.052;2022-08-03T14:30:31;34.40;52.70
40960;DHT22;27842;52.272;8.052;2022-08-03T14:32:57;34.50;52.50
40960;DHT22;27842;52.272;8.052;2022-08-03T14:35:22;34.50;52.20
40960;DHT22;27842;52.272;8.052;2022-08-03T14:37:48;34.40;52.30
40960;DHT22;27842;52.272;8.052;2022-08-03T14:40:13;34.40;52.50
40960;DHT22;27842;52.272;8.052;2022-08-03T14:42:39;34.40;52.40
40960;DHT22;27842;52.272;8.052;2022-08-03T14:45:05;34.20;52.50
40960;DHT22;27842;52.272;8.052;2022-08-03T14:47:30;34.10;53.50
40960;DHT22;27842;52.272;8.052;2022-08-03T14:49:57;34.10;53.00
40960;DHT22;27842;52.272;8.052;2022-08-03T14:52:23;33.90;53.00
40960;DHT22;27842;52.272;8.052;2022-08-03T14:54:48;33.90;52.80
40960;DHT22;27842;52.272;8.052;2022-08-03T14:57:14;33.80;52.90
40960;DHT22;27842;52.272;8.052;2022-08-03T14:59:39;33.70;53.10
40960;DHT22;27842;52.272;8.052;2022-08-03T15:02:05;33.60;53.30
40960;DHT22;27842;52.272;8.052;2022-08-03T15:04:30;33.50;53.50
40960;DHT22;27842;52.272;8.052;2022-08-03T15:06:56;33.50;53.80
40960;DHT22;27842;52.272;8.052;2022-08-03T15:09:22;33.50;54.00
40960;DHT22;27842;52.272;8.052;2022-08-03T15:11:47;33.50;54.00
40960;DHT22;27842;52.272;8.052;2022-08-03T15:14:13;33.40;54.10
40960;DHT22;27842;52.272;8.052;2022-08-03T15:16:39;33.40;54.30
40960;DHT22;27842;52.272;8.052;2022-08-03T15:19:05;33.50;54.20
40960;DHT22;27842;52.272;8.052;2022-08-03T15:21:30;33.50;54.10
40960;DHT22;27842;52.272;8.052;2022-08-03T15:23:56;33.60;54.00
40960;DHT22;27842;52.272;8.052;2022-08-03T15:26:21;33.60;53.80
40960;DHT22;27842;52.272;8.052;2022-08-03T15:28:47;33.70;53.60
40960;DHT22;27842;52.272;8.052;2022-08-03T15:31:12;33.80;53.50
40960;DHT22;27842;52.272;8.052;2022-08-03T15:33:38;33.80;53.10
40960;DHT22;27842;52.272;8.052;2022-08-03T15:36:04;33.80;53.00
40960;DHT22;27842;52.272;8.052;2022-08-03T15:38:30;33.70;52.80
40960;DHT22;27842;52.272;8.052;2022-08-03T15:40:55;33.70;52.90
40960;DHT22;27842;52.272;8.052;2022-08-03T15:43:22;33.60;53.10
40960;DHT22;27842;52.272;8.052;2022-08-03T15:45:47;33.60;53.10
40960;DHT22;27842;52.272;8.052;2022-08-03T15:48:13;33.50;53.20
40960;DHT22;27842;52.272;8.052;2022-08-03T15:50:39;33.40;53.20
40960;DHT22;27842;52.272;8.052;2022-08-03T15:53:04;33.30;54.00
40960;DHT22;27842;52.272;8.052;2022-08-03T15:55:31;33.20;53.40
40960;DHT22;27842;52.272;8.052;2022-08-03T15:57:57;33.10;53.60
40960;DHT22;27842;52.272;8.052;2022-08-03T16:00:22;33.00;53.90
40960;DHT22;27842;52.272;8.052;2022-08-03T16:02:48;32.90;53.90
40960;DHT22;27842;52.272;8.052;2022-08-03T16:05:14;32.90;53.90
40960;DHT22;27842;52.272;8.052;2022-08-03T16:07:39;32.80;53.90
40960;DHT22;27842;52.272;8.052;2022-08-03T16:10:08;32.70;54.00
40960;DHT22;27842;52.272;8.052;2022-08-03T16:12:35;32.70;54.10
40960;DHT22;27842;52.272;8.052;2022-08-03T16:15:01;32.70;54.20
40960;DHT22;27842;52.272;8.052;2022-08-03T16:17:27;32.60;54.00
40960;DHT22;27842;52.272;8.052;2022-08-03T16:19:53;32.50;53.90
40960;DHT22;27842;52.272;8.052;2022-08-03T16:22:19;32.50;54.10
40960;DHT22;27842;52.272;8.052;2022-08-03T16:24:45;32.50;54.30
40960;DHT22;27842;52.272;8.052;2022-08-03T16:27:11;32.40;54.40